sensor_id;sensor_type;location;lat;lon;timestamp;pressure;altitude;pressure_sealevel;temperature;humidity
28310;BME280;15571;50.974;13.936;2023-04-27T00:00:46;100403.66;;;6.27;100.00
28310;BME280;15571;50.974;13.936;2023-04-27T00:03:50;100404.50;;;6.24;100.00
28310;BME280;15571;50.974;13.936;2023-04-27T00:06:59;100398.38;;;6.22;100.00
28310;BME280;15571;50.974;13.936;2023-04-27T00:10:09;100399.19;;;6.18;100.00
28310;BME280;15571;50.974;13.936;2023-04-27T00:13:16;100399.16;;;6.15;100.00
28310;BME280;15571;50.974;13.936;2023-04-27T00:16:23;100395.59;;;6.10;100.00
28310;BME280;15571;50.974;13.936;2023-04-27T00:19:27;100394.69;;;6.07;100.00
28310;BME280;15571;50.974;13.936;2023-04-27T00:22:35;100385.13;;;6.03;100.00
28310;BME280;15571;50.974;13.936;2023-04-27T00:25:39;100392.84;;;6.00;100.00
28310;BME280;15571;50.974;13.936;2023-04-27T00:28:43;100388.44;;;5.96;100.00
28310;BME280;15571;50.974;13.936;2023-04-27T00:31:49;100386.63;;;5.92;100.00
28310;BME280;15571;50.974;13.936;2023-04-27T00:34:57;100390.00;;;5.88;100.00
28310;BME280;15571;50.974;13.936;2023-04-27T00:38:03;100388.22;;;5.84;100.00
28310;BME280;15571;50.974;13.936;2023-04-27T00:41:07;100389.06;;;5.83;100.00
28310;BME280;15571;50.974;13.936;2023-04-27T00:44:12;100394.94;;;5.71;100.00
28310;BME280;15571;50.974;13.936;2023-04-27T00:47:14;100396.66;;;5.70;100.00
28310;BME280;15571;50.974;13.936;2023-04-27T00:50:21;100397.50;;;5.69;100.00
28310;BME280;15571;50.974;13.936;2023-04-27T00:53:33;100411.22;;;5.62;100.00
28310;BME280;15571;50.974;13.936;2023-04-27T00:56:39;100409.53;;;5.63;100.00
28310;BME280;15571;50.974;13.936;2023-04-27T00:59:47;100407.78;;;5.61;100.00
28310;BME280;15571;50.974;13.936;2023-04-27T01:02:51;100407.72;;;5.58;100.00
28310;BME280;15571;50.974;13.936;2023-04-27T01:05:55;100404.25;;;5.58;100.00
28310;BME280;15571;50.974;13.936;2023-04-27T01:09:03;100409.31;;;5.52;100.00
28310;BME280;15571;50.974;13.936;2023-04-27T01:12:07;100420.50;;;5.48;100.00
28310;BME280;15571;50.974;13.936;2023-04-27T01:15:11;100417.00;;;5.45;100.00
28310;BME280;15571;50.974;13.936;2023-04-27T01:18:17;100418.69;;;5.43;100.00
28310;BME280;15571;50.974;13.936;2023-04-27T01:21:24;100413.44;;;5.40;100.00
28310;BME280;15571;50.974;13.936;2023-04-27T01:24:30;100416.88;;;5.39;100.00
28310;BME280;15571;50.974;13.936;2023-04-27T01:27:39;100413.41;;;5.37;100.00
28310;BME280;15571;50.974;13.936;2023-04-27T01:30:41;100423.72;;;5.34;100.00
28310;BME280;15571;50.974;13.936;2023-04-27T01:33:46;100421.94;;;5.32;100.00
28310;BME280;15571;50.974;13.936;2023-04-27T01:36:52;100420.16;;;5.29;100.00
28310;BME280;15571;50.974;13.936;2023-04-27T01:40:00;100430.56;;;5.29;100.00
28310;BME280;15571;50.974;13.936;2023-04-27T01:43:05;100425.28;;;5.26;100.00
28310;BME280;15571;50.974;13.936;2023-04-27T01:46:12;100435.63;;;5.24;100.00
28310;BME280;15571;50.974;13.936;2023-04-27T01:49:18;100435.59;;;5.23;100.00
28310;BME280;15571;50.974;13.936;2023-04-27T01:52:23;100433.84;;;5.22;100.00
28310;BME280;15571;50.974;13.936;2023-04-27T01:55:29;100435.50;;;5.17;100.00
28310;BME280;15571;50.974;13.936;2023-04-27T01:58:35;100436.25;;;5.11;100.00
28310;BME280;15571;50.974;13.936;2023-04-27T02:01:41;100441.41;;;5.09;100.00
28310;BME280;15571;50.974;13.936;2023-04-27T02:04:48;100437.00;;;5.05;100.00
28310;BME280;15571;50.974;13.936;2023-04-27T02:07:53;100443.75;;;4.97;100.00
28310;BME280;15571;50.974;13.936;2023-04-27T02:10:57;100443.66;;;4.94;100.00
28310;BME280;15571;50.974;13.936;2023-04-27T02:14:04;100446.16;;;4.88;100.00
28310;BME280;15571;50.974;13.936;2023-04-27T02:17:08;100443.47;;;4.85;100.00
28310;BME280;15571;50.974;13.936;2023-04-27T02:20:15;100448.66;;;4.85;100.00
28310;BME280;15571;50.974;13.936;2023-04-27T02:23:20;100447.81;;;4.84;100.00
28310;BME280;15571;50.974;13.936;2023-04-27T02:26:33;100452.81;;;4.76;100.00
28310;BME280;15571;50.974;13.936;2023-04-27T02:29:38;100446.81;;;4.79;100.00
28310;BME280;15571;50.974;13.936;2023-04-27T02:32:44;100453.72;;;4.78;100.00
28310;BME280;15571;50.974;13.936;2023-04-27T02:35:48;100446.72;;;4.76;100.00
28310;BME280;15571;50.974;13.936;2023-04-27T02:39:00;100447.53;;;4.72;100.00
28310;BME280;15571;50.974;13.936;2023-04-27T02:42:13;100453.53;;;4.69;100.00
28310;BME280;15571;50.974;13.936;2023-04-27T02:45:16;100451.78;;;4.68;100.00
28310;BME280;15571;50.974;13.936;2023-04-27T02:48:19;100446.50;;;4.65;100.00
28310;BME280;15571;50.974;13.936;2023-04-27T02:51:21;100453.38;;;4.63;100.00
28310;BME280;15571;50.974;13.936;2023-04-27T02:54:24;100454.16;;;4.59;100.00
28310;BME280;15571;50.974;13.936;2023-04-27T02:57:28;100457.59;;;4.58;100.00
28310;BME280;15571;50.974;13.936;2023-04-27T03:00:31;100449.75;;;4.55;100.00
28310;BME280;15571;50.974;13.936;2023-04-27T03:03:38;100449.72;;;4.53;100.00
28310;BME280;15571;50.974;13.936;2023-04-27T03:06:42;100453.13;;;4.50;100.00
28310;BME280;15571;50.974;13.936;2023-04-27T03:09:48;100448.69;;;4.46;100.00
28310;BME280;15571;50.974;13.936;2023-04-27T03:12:55;100455.63;;;4.47;100.00
28310;BME280;15571;50.974;13.936;2023-04-27T03:16:04;100454.72;;;4.45;100.00
28310;BME280;15571;50.974;13.936;2023-04-27T03:19:09;100455.53;;;4.43;100.00
28310;BME280;15571;50.974;13.936;2023-04-27T03:22:16;100458.06;;;4.41;100.00
28310;BME280;15571;50.974;13.936;2023-04-27T03:25:20;100468.28;;;4.35;100.00
28310;BME280;15571;50.974;13.936;2023-04-27T03:28:26;100469.13;;;4.34;100.00
28310;BME280;15571;50.974;13.936;2023-04-27T03:31:34;100469.97;;;4.33;100.00
28310;BME280;15571;50.974;13.936;2023-04-27T03:34:39;100480.34;;;4.33;100.00
28310;BME280;15571;50.974;13.936;2023-04-27T03:37:42;100482.03;;;4.31;100.00
28310;BME280;15571;50.974;13.936;2023-04-27T03:40:49;100490.66;;;4.30;100.00
28310;BME280;15571;50.974;13.936;2023-04-27T03:43:59;100490.66;;;4.30;100.00
28310;BME280;15571;50.974;13.936;2023-04-27T03:47:06;100491.44;;;4.27;100.00
28310;BME280;15571;50.974;13.936;2023-04-27T03:50:16;100502.59;;;4.25;100.00
28310;BME280;15571;50.974;13.936;2023-04-27T03:53:19;100509.50;;;4.24;100.00
28310;BME280;15571;50.974;13.936;2023-04-27T03:56:22;100513.81;;;4.24;100.00
28310;BME280;15571;50.974;13.936;2023-04-27T03:59:30;100512.97;;;4.25;100.00
28310;BME280;15571;50.974;13.936;2023-04-27T04:02:41;100509.44;;;4.23;100.00
28310;BME280;15571;50.974;13.936;2023-04-27T04:05:45;100513.75;;;4.20;100.00
28310;BME280;15571;50.974;13.936;2023-04-27T04:08:52;100514.59;;;4.19;100.00
28310;BME280;15571;50.974;13.936;2023-04-27T04:11:57;100515.41;;;4.18;100.00
28310;BME280;15571;50.974;13.936;2023-04-27T04:15:07;100514.50;;;4.16;100.00
28310;BME280;15571;50.974;13.936;2023-04-27T04:18:15;100513.63;;;4.16;100.00
28310;BME280;15571;50.974;13.936;2023-04-27T04:21:22;100509.34;;;4.18;100.00
28310;BME280;15571;50.974;13.936;2023-04-27T04:24:26;100519.69;;;4.16;100.00
28310;BME280;15571;50.974;13.936;2023-04-27T04:27:38;100514.50;;;4.16;100.00
28310;BME280;15571;50.974;13.936;2023-04-27T04:30:45;100521.34;;;4.14;100.00
28310;BME280;15571;50.974;13.936;2023-04-27T04:33:48;100526.53;;;4.14;100.00
28310;BME280;15571;50.974;13.936;2023-04-27T04:36:55;100528.25;;;4.14;100.00
28310;BME280;15571;50.974;13.936;2023-04-27T04:39:59;100528.28;;;4.15;100.00
28310;BME280;15571;50.974;13.936;2023-04-27T04:43:04;100527.44;;;4.16;100.00
28310;BME280;15571;50.974;13.936;2023-04-27T04:46:10;100534.38;;;4.17;100.00
28310;BME280;15571;50.974;13.936;2023-04-27T04:49:17;100530.97;;;4.18;100.00
28310;BME280;15571;50.974;13.936;2023-04-27T04:52:20;100532.63;;;4.16;100.00
28310;BME280;15571;50.974;13.936;2023-04-27T04:55:25;100540.44;;;4.18;100.00
28310;BME280;15571;50.974;13.936;2023-04-27T04:58:33;100531.78;;;4.17;100.00
28310;BME280;15571;50.974;13.936;2023-04-27T05:01:40;100534.41;;;4.19;100.00
28310;BME280;15571;50.974;13.936;2023-04-27T05:04:44;100540.56;;;4.23;100.00
28310;BME280;15571;50.974;13.936;2023-04-27T05:07:47;100542.31;;;4.24;100.00
28310;BME280;15571;50.974;13.936;2023-04-27T05:10:52;100547.56;;;4.27;100.00
28310;BME280;15571;50.974;13.936;2023-04-27T05:13:58;100548.56;;;4.32;100.00
28310;BME280;15571;50.974;13.936;2023-04-27T05:17:02;100553.81;;;4.33;100.00
28310;BME280;15571;50.974;13.936;2023-04-27T05:20:07;100560.84;;;4.39;100.00
28310;BME280;15571;50.974;13.936;2023-04-27T05:23:10;100548.84;;;4.43;100.00
28310;BME280;15571;50.974;13.936;2023-04-27T05:26:14;100549.66;;;4.40;100.00
28310;BME280;15571;50.974;13.936;2023-04-27T05:29:19;100554.03;;;4.43;100.00
28310;BME280;15571;50.974;13.936;2023-04-27T05:32:27;100549.78;;;4.46;100.00
28310;BME280;15571;50.974;13.936;2023-04-27T05:35:30;100550.75;;;4.50;100.00
28310;BME280;15571;50.974;13.936;2023-04-27T05:38:33;100549.06;;;4.52;100.00
28310;BME280;15571;50.974;13.936;2023-04-27T05:41:40;100557.78;;;4.54;100.00
28310;BME280;15571;50.974;13.936;2023-04-27T05:44:43;100558.59;;;4.53;100.00
28310;BME280;15571;50.974;13.936;2023-04-27T05:47:47;100555.19;;;4.54;100.00
28310;BME280;15571;50.974;13.936;2023-04-27T05:50:57;100556.22;;;4.62;100.00
28310;BME280;15571;50.974;13.936;2023-04-27T05:54:02;100547.66;;;4.65;100.00
28310;BME280;15571;50.974;13.936;2023-04-27T05:57:08;100546.94;;;4.72;100.00
28310;BME280;15571;50.974;13.936;2023-04-27T06:00:19;100547.09;;;4.78;100.00
28310;BME280;15571;50.974;13.936;2023-04-27T06:03:23;100538.50;;;4.81;100.00
28310;BME280;15571;50.974;13.936;2023-04-27T06:06:29;100540.38;;;4.87;100.00
28310;BME280;15571;50.974;13.936;2023-04-27T06:09:33;100533.56;;;4.92;100.00
28310;BME280;15571;50.974;13.936;2023-04-27T06:12:36;100538.91;;;4.98;100.00
28310;BME280;15571;50.974;13.936;2023-04-27T06:15:47;100533.84;;;5.04;100.00
28310;BME280;15571;50.974;13.936;2023-04-27T06:18:54;100531.44;;;5.13;100.00
28310;BME280;15571;50.974;13.936;2023-04-27T06:22:02;100530.72;;;5.21;100.00
28310;BME280;15571;50.974;13.936;2023-04-27T06:25:06;100530.91;;;5.28;100.00
28310;BME280;15571;50.974;13.936;2023-04-27T06:28:15;100533.69;;;5.38;100.00
28310;BME280;15571;50.974;13.936;2023-04-27T06:31:22;100527.75;;;5.43;100.00
28310;BME280;15571;50.974;13.936;2023-04-27T06:34:25;100533.88;;;5.49;100.00
28310;BME280;15571;50.974;13.936;2023-04-27T06:37:27;100533.13;;;5.54;100.00
28310;BME280;15571;50.974;13.936;2023-04-27T06:40:31;100534.97;;;5.60;100.00
28310;BME280;15571;50.974;13.936;2023-04-27T06:43:34;100536.81;;;5.64;100.00
28310;BME280;15571;50.974;13.936;2023-04-27T06:46:37;100543.78;;;5.68;100.00
28310;BME280;15571;50.974;13.936;2023-04-27T06:49:44;100544.78;;;5.73;100.00
28310;BME280;15571;50.974;13.936;2023-04-27T06:52:46;100540.53;;;5.79;100.00
28310;BME280;15571;50.974;13.936;2023-04-27T06:55:48;100541.50;;;5.84;100.00
28310;BME280;15571;50.974;13.936;2023-04-27T06:58:51;100544.22;;;5.90;100.00
28310;BME280;15571;50.974;13.936;2023-04-27T07:01:57;100554.75;;;5.96;100.00
28310;BME280;15571;50.974;13.936;2023-04-27T07:05:04;100541.03;;;6.03;100.00
28310;BME280;15571;50.974;13.936;2023-04-27T07:08:07;100549.84;;;6.12;100.00
28310;BME280;15571;50.974;13.936;2023-04-27T07:11:17;100545.63;;;6.18;100.00
28310;BME280;15571;50.974;13.936;2023-04-27T07:14:23;100550.97;;;6.26;100.00
28310;BME280;15571;50.974;13.936;2023-04-27T07:17:26;100549.34;;;6.33;100.00
28310;BME280;15571;50.974;13.936;2023-04-27T07:20:37;100551.16;;;6.37;100.00
28310;BME280;15571;50.974;13.936;2023-04-27T07:23:40;100542.59;;;6.43;100.00
28310;BME280;15571;50.974;13.936;2023-04-27T07:26:47;100545.28;;;6.49;100.00
28310;BME280;15571;50.974;13.936;2023-04-27T07:29:52;100548.84;;;6.54;100.00
28310;BME280;15571;50.974;13.936;2023-04-27T07:32:56;100550.69;;;6.61;100.00
28310;BME280;15571;50.974;13.936;2023-04-27T07:36:06;100547.31;;;6.68;100.00
28310;BME280;15571;50.974;13.936;2023-04-27T07:39:11;100549.13;;;6.73;100.00
28310;BME280;15571;50.974;13.936;2023-04-27T07:42:15;100543.16;;;6.78;100.00
28310;BME280;15571;50.974;13.936;2023-04-27T07:45:20;100545.81;;;6.83;100.00
28310;BME280;15571;50.974;13.936;2023-04-27T07:48:32;100548.44;;;6.84;100.00
28310;BME280;15571;50.974;13.936;2023-04-27T07:51:38;100551.94;;;6.88;100.00
28310;BME280;15571;50.974;13.936;2023-04-27T07:54:40;100550.38;;;6.99;100.00
28310;BME280;15571;50.974;13.936;2023-04-27T07:57:43;100559.09;;;7.00;100.00
28310;BME280;15571;50.974;13.936;2023-04-27T08:00:50;100560.78;;;6.99;100.00
28310;BME280;15571;50.974;13.936;2023-04-27T08:03:55;100551.38;;;7.08;100.00
28310;BME280;15571;50.974;13.936;2023-04-27T08:07:04;100554.03;;;7.11;100.00
28310;BME280;15571;50.974;13.936;2023-04-27T08:10:10;100555.84;;;7.18;100.00
28310;BME280;15571;50.974;13.936;2023-04-27T08:13:12;100558.56;;;7.26;100.00
28310;BME280;15571;50.974;13.936;2023-04-27T08:16:19;100566.44;;;7.30;100.00
28310;BME280;15571;50.974;13.936;2023-04-27T08:19:22;100562.13;;;7.34;100.00
28310;BME280;15571;50.974;13.936;2023-04-27T08:22:26;100553.53;;;7.40;100.00
28310;BME280;15571;50.974;13.936;2023-04-27T08:25:29;100558.81;;;7.44;100.00
28310;BME280;15571;50.974;13.936;2023-04-27T08:28:34;100560.66;;;7.53;100.00
28310;BME280;15571;50.974;13.936;2023-04-27T08:31:36;100548.59;;;7.61;100.00
28310;BME280;15571;50.974;13.936;2023-04-27T08:34:41;100544.28;;;7.67;100.00
28310;BME280;15571;50.974;13.936;2023-04-27T08:37:50;100547.00;;;7.73;100.00
28310;BME280;15571;50.974;13.936;2023-04-27T08:40:54;100547.91;;;7.78;100.00
28310;BME280;15571;50.974;13.936;2023-04-27T08:44:01;100554.06;;;7.83;100.00
28310;BME280;15571;50.974;13.936;2023-04-27T08:47:15;100554.13;;;7.89;100.00
28310;BME280;15571;50.974;13.936;2023-04-27T08:50:19;100546.34;;;7.92;100.00
28310;BME280;15571;50.974;13.936;2023-04-27T08:53:35;100550.75;;;8.00;100.00
28310;BME280;15571;50.974;13.936;2023-04-27T08:56:37;100545.59;;;8.03;100.00
28310;BME280;15571;50.974;13.936;2023-04-27T08:59:42;100541.28;;;8.08;100.00
28310;BME280;15571;50.974;13.936;2023-04-27T09:02:47;100536.94;;;8.10;100.00
28310;BME280;15571;50.974;13.936;2023-04-27T09:05:49;100534.44;;;8.21;100.00
28310;BME280;15571;50.974;13.936;2023-04-27T09:08:58;100537.13;;;8.29;100.00
28310;BME280;15571;50.974;13.936;2023-04-27T09:12:11;100525.91;;;8.39;100.00
28310;BME280;15571;50.974;13.936;2023-04-27T09:15:17;100536.44;;;8.48;100.00
28310;BME280;15571;50.974;13.936;2023-04-27T09:18:25;100529.50;;;8.53;100.00
28310;BME280;15571;50.974;13.936;2023-04-27T09:21:33;100529.59;;;8.61;100.00
28310;BME280;15571;50.974;13.936;2023-04-27T09:24:48;100525.31;;;8.71;100.00
28310;BME280;15571;50.974;13.936;2023-04-27T09:27:52;100534.03;;;8.76;100.00
28310;BME280;15571;50.974;13.936;2023-04-27T09:34:56;100515.00;;;8.93;100.00
28310;BME280;15571;50.974;13.936;2023-04-27T09:37:59;100507.22;;;9.00;100.00
28310;BME280;15571;50.974;13.936;2023-04-27T09:41:09;100514.22;;;9.11;100.00
28310;BME280;15571;50.974;13.936;2023-04-27T09:44:11;100505.56;;;9.15;100.00
28310;BME280;15571;50.974;13.936;2023-04-27T09:47:19;100510.81;;;9.24;100.00
28310;BME280;15571;50.974;13.936;2023-04-27T09:50:21;100509.97;;;9.33;99.04
28310;BME280;15571;50.974;13.936;2023-04-27T09:53:28;100510.88;;;9.38;99.35
28310;BME280;15571;50.974;13.936;2023-04-27T09:56:36;100509.16;;;9.42;99.13
28310;BME280;15571;50.974;13.936;2023-04-27T09:59:53;100502.19;;;9.47;98.99
28310;BME280;15571;50.974;13.936;2023-04-27T10:03:02;100506.56;;;9.49;98.12
28310;BME280;15571;50.974;13.936;2023-04-27T10:09:39;100502.19;;;9.52;95.92
28310;BME280;15571;50.974;13.936;2023-04-27T10:12:56;100507.44;;;9.55;92.79
28310;BME280;15571;50.974;13.936;2023-04-27T10:16:14;100494.41;;;9.58;91.43
28310;BME280;15571;50.974;13.936;2023-04-27T10:19:19;100493.53;;;9.60;88.53
28310;BME280;15571;50.974;13.936;2023-04-27T10:22:36;100489.19;;;9.67;89.62
28310;BME280;15571;50.974;13.936;2023-04-27T10:25:45;100506.63;;;9.68;80.72
28310;BME280;15571;50.974;13.936;2023-04-27T10:28:56;100506.63;;;9.68;77.13
28310;BME280;15571;50.974;13.936;2023-04-27T10:32:04;100504.03;;;9.73;77.40
28310;BME280;15571;50.974;13.936;2023-04-27T10:35:10;100507.53;;;9.79;77.55
28310;BME280;15571;50.974;13.936;2023-04-27T10:38:14;100517.97;;;9.82;71.19
28310;BME280;15571;50.974;13.936;2023-04-27T10:41:19;100509.28;;;9.84;71.40
28310;BME280;15571;50.974;13.936;2023-04-27T10:44:25;100504.91;;;9.86;71.33
28310;BME280;15571;50.974;13.936;2023-04-27T10:47:36;100501.44;;;9.93;67.52
28310;BME280;15571;50.974;13.936;2023-04-27T10:50:41;100500.59;;;10.02;70.41
28310;BME280;15571;50.974;13.936;2023-04-27T10:53:50;100500.59;;;10.06;70.19
28310;BME280;15571;50.974;13.936;2023-04-27T10:57:03;100495.34;;;10.14;70.64
28310;BME280;15571;50.974;13.936;2023-04-27T11:00:10;100496.25;;;10.18;68.72
28310;BME280;15571;50.974;13.936;2023-04-27T11:03:15;100504.97;;;10.23;67.91
28310;BME280;15571;50.974;13.936;2023-04-27T11:06:19;100508.44;;;10.31;70.07
28310;BME280;15571;50.974;13.936;2023-04-27T11:09:24;100499.72;;;10.32;67.80
28310;BME280;15571;50.974;13.936;2023-04-27T11:12:31;100509.34;;;10.36;65.85
28310;BME280;15571;50.974;13.936;2023-04-27T11:19:07;100501.50;;;10.42;62.47
28310;BME280;15571;50.974;13.936;2023-04-27T11:22:16;100502.34;;;10.35;61.13
28310;BME280;15571;50.974;13.936;2023-04-27T11:25:26;100501.50;;;10.42;62.70
28310;BME280;15571;50.974;13.936;2023-04-27T11:28:32;100506.72;;;10.53;64.30
28310;BME280;15571;50.974;13.936;2023-04-27T11:31:39;100504.97;;;10.60;63.29
28310;BME280;15571;50.974;13.936;2023-04-27T11:34:50;100504.13;;;10.67;62.80
28310;BME280;15571;50.974;13.936;2023-04-27T11:38:04;100501.47;;;10.77;62.75
28310;BME280;15571;50.974;13.936;2023-04-27T11:41:06;100498.84;;;10.80;60.33
28310;BME280;15571;50.974;13.936;2023-04-27T11:44:08;100491.00;;;10.78;60.40
28310;BME280;15571;50.974;13.936;2023-04-27T11:47:14;100497.09;;;10.82;59.98
28310;BME280;15571;50.974;13.936;2023-04-27T11:50:24;100502.31;;;10.83;58.88
28310;BME280;15571;50.974;13.936;2023-04-27T11:53:32;100506.69;;;10.86;58.49
28310;BME280;15571;50.974;13.936;2023-04-27T11:56:37;100499.69;;;10.89;59.30
28310;BME280;15571;50.974;13.936;2023-04-27T11:59:40;100511.91;;;10.92;59.71
28310;BME280;15571;50.974;13.936;2023-04-27T12:02:48;100502.28;;;10.99;59.93
28310;BME280;15571;50.974;13.936;2023-04-27T12:05:55;100515.38;;;11.05;60.91
28310;BME280;15571;50.974;13.936;2023-04-27T12:09:00;100513.63;;;11.10;60.25
28310;BME280;15571;50.974;13.936;2023-04-27T12:12:08;100508.38;;;11.09;55.73
28310;BME280;15571;50.974;13.936;2023-04-27T12:15:13;100493.50;;;11.18;58.43
28310;BME280;15571;50.974;13.936;2023-04-27T12:18:21;100495.25;;;11.19;56.38
28310;BME280;15571;50.974;13.936;2023-04-27T12:21:35;100511.81;;;11.17;52.46
28310;BME280;15571;50.974;13.936;2023-04-27T12:24:41;100491.75;;;11.20;52.43
28310;BME280;15571;50.974;13.936;2023-04-27T12:27:45;100501.34;;;11.26;54.23
28310;BME280;15571;50.974;13.936;2023-04-27T12:30:50;100496.03;;;11.34;55.13
28310;BME280;15571;50.974;13.936;2023-04-27T12:33:55;100492.53;;;11.40;55.85
28310;BME280;15571;50.974;13.936;2023-04-27T12:37:02;100496.06;;;11.35;53.42
28310;BME280;15571;50.974;13.936;2023-04-27T12:40:06;100495.16;;;11.38;53.42
28310;BME280;15571;50.974;13.936;2023-04-27T12:43:10;100503.03;;;11.36;53.46
28310;BME280;15571;50.974;13.936;2023-04-27T12:46:12;100499.56;;;11.34;53.23
28310;BME280;15571;50.974;13.936;2023-04-27T12:49:15;100490.78;;;11.39;51.80
28310;BME280;15571;50.974;13.936;2023-04-27T12:52:21;100498.63;;;11.45;51.75
28310;BME280;15571;50.974;13.936;2023-04-27T12:55:27;100499.47;;;11.47;52.69
28310;BME280;15571;50.974;13.936;2023-04-27T12:58:32;100490.75;;;11.48;53.07
28310;BME280;15571;50.974;13.936;2023-04-27T13:01:40;100504.75;;;11.44;51.16
28310;BME280;15571;50.974;13.936;2023-04-27T13:04:45;100489.06;;;11.33;49.34
28310;BME280;15571;50.974;13.936;2023-04-27T13:07:52;100490.78;;;11.39;51.12
28310;BME280;15571;50.974;13.936;2023-04-27T13:11:00;100486.41;;;11.44;51.83
28310;BME280;15571;50.974;13.936;2023-04-27T13:14:12;100499.50;;;11.45;51.90
28310;BME280;15571;50.974;13.936;2023-04-27T13:17:14;100488.97;;;11.51;52.59
28310;BME280;15571;50.974;13.936;2023-04-27T13:20:18;100494.22;;;11.50;50.45
28310;BME280;15571;50.974;13.936;2023-04-27T13:23:25;100488.13;;;11.49;49.95
28310;BME280;15571;50.974;13.936;2023-04-27T13:26:32;100485.47;;;11.56;51.54
28310;BME280;15571;50.974;13.936;2023-04-27T13:29:36;100487.19;;;11.58;52.46
28310;BME280;15571;50.974;13.936;2023-04-27T13:32:40;100493.31;;;11.60;52.62
28310;BME280;15571;50.974;13.936;2023-04-27T13:35:45;100486.28;;;11.64;51.69
28310;BME280;15571;50.974;13.936;2023-04-27T13:38:53;100490.69;;;11.57;50.57
28310;BME280;15571;50.974;13.936;2023-04-27T13:41:56;100490.63;;;11.66;50.79
28310;BME280;15571;50.974;13.936;2023-04-27T13:45:04;100495.06;;;11.57;49.03
28310;BME280;15571;50.974;13.936;2023-04-27T13:48:11;100484.59;;;11.60;50.08
28310;BME280;15571;50.974;13.936;2023-04-27T13:51:16;100481.03;;;11.64;51.18
28310;BME280;15571;50.974;13.936;2023-04-27T13:54:25;100490.69;;;11.60;50.38
28310;BME280;15571;50.974;13.936;2023-04-27T13:57:34;100477.56;;;11.60;50.43
28310;BME280;15571;50.974;13.936;2023-04-27T14:00:38;100467.09;;;11.60;50.43
28310;BME280;15571;50.974;13.936;2023-04-27T14:03:40;100467.94;;;11.62;50.08
28310;BME280;15571;50.974;13.936;2023-04-27T14:06:44;100476.72;;;11.60;49.35
28310;BME280;15571;50.974;13.936;2023-04-27T14:09:47;100472.34;;;11.60;49.06
28310;BME280;15571;50.974;13.936;2023-04-27T14:12:58;100460.06;;;11.64;49.43
28310;BME280;15571;50.974;13.936;2023-04-27T14:16:02;100467.94;;;11.64;50.07
28310;BME280;15571;50.974;13.936;2023-04-27T14:19:05;100465.31;;;11.67;50.76
28310;BME280;15571;50.974;13.936;2023-04-27T14:22:09;100471.41;;;11.67;51.62
28310;BME280;15571;50.974;13.936;2023-04-27T14:25:14;100471.41;;;11.67;50.75
28310;BME280;15571;50.974;13.936;2023-04-27T14:28:16;100468.78;;;11.67;48.95
28310;BME280;15571;50.974;13.936;2023-04-27T14:31:20;100459.16;;;11.70;49.19
28310;BME280;15571;50.974;13.936;2023-04-27T14:34:24;100457.41;;;11.72;49.46
28310;BME280;15571;50.974;13.936;2023-04-27T14:37:29;100460.06;;;11.67;49.77
28310;BME280;15571;50.974;13.936;2023-04-27T14:40:37;100453.03;;;11.71;50.21
28310;BME280;15571;50.974;13.936;2023-04-27T14:43:41;100455.66;;;11.74;51.04
28310;BME280;15571;50.974;13.936;2023-04-27T14:46:47;100457.41;;;11.75;50.68
28310;BME280;15571;50.974;13.936;2023-04-27T14:49:49;100449.50;;;11.76;51.16
28310;BME280;15571;50.974;13.936;2023-04-27T14:52:55;100458.25;;;11.72;51.04
28310;BME280;15571;50.974;13.936;2023-04-27T14:56:00;100456.50;;;11.77;50.08
28310;BME280;15571;50.974;13.936;2023-04-27T14:59:05;100456.47;;;11.79;50.57
28310;BME280;15571;50.974;13.936;2023-04-27T15:02:08;100455.59;;;11.80;50.54
28310;BME280;15571;50.974;13.936;2023-04-27T15:05:16;100458.22;;;11.77;49.85
28310;BME280;15571;50.974;13.936;2023-04-27T15:08:19;100460.00;;;11.76;49.77
28310;BME280;15571;50.974;13.936;2023-04-27T15:11:26;100464.34;;;11.79;49.97
28310;BME280;15571;50.974;13.936;2023-04-27T15:14:31;100460.00;;;11.79;50.47
28310;BME280;15571;50.974;13.936;2023-04-27T15:17:36;100459.97;;;11.81;51.12
28310;BME280;15571;50.974;13.936;2023-04-27T15:20:39;100460.84;;;11.83;51.42
28310;BME280;15571;50.974;13.936;2023-04-27T15:23:46;100464.31;;;11.83;51.50
28310;BME280;15571;50.974;13.936;2023-04-27T15:26:52;100466.97;;;11.82;50.40
28310;BME280;15571;50.974;13.936;2023-04-27T15:29:57;100468.72;;;11.78;50.46
28310;BME280;15571;50.974;13.936;2023-04-27T15:33:01;100466.09;;;11.83;50.78
28310;BME280;15571;50.974;13.936;2023-04-27T15:36:05;100474.81;;;11.82;51.05
28310;BME280;15571;50.974;13.936;2023-04-27T15:39:08;100460.84;;;11.80;50.36
28310;BME280;15571;50.974;13.936;2023-04-27T15:42:16;100464.34;;;11.79;50.56
28310;BME280;15571;50.974;13.936;2023-04-27T15:45:18;100464.34;;;11.76;50.57
28310;BME280;15571;50.974;13.936;2023-04-27T15:48:25;100461.72;;;11.79;50.70
28310;BME280;15571;50.974;13.936;2023-04-27T15:51:31;100455.59;;;11.77;51.55
28310;BME280;15571;50.974;13.936;2023-04-27T15:54:37;100457.34;;;11.78;51.37
28310;BME280;15571;50.974;13.936;2023-04-27T15:57:43;100459.09;;;11.82;51.78
28310;BME280;15571;50.974;13.936;2023-04-27T16:00:47;100446.00;;;11.80;51.63
28310;BME280;15571;50.974;13.936;2023-04-27T16:03:54;100443.34;;;11.82;51.82
28310;BME280;15571;50.974;13.936;2023-04-27T16:07:00;100433.75;;;11.78;51.28
28310;BME280;15571;50.974;13.936;2023-04-27T16:10:05;100435.50;;;11.76;50.81